Time;durP1;ratioP1;P1;durP2;ratioP2;P2;SDS_P1;SDS_P2;PMS_P1;PMS_P2;Temp;Humidity;BMP_temperature;BMP_pressure;BME280_temperature;BME280_humidity;BME280_pressure;Samples;Min_cycle;Max_cycle;Signal;HPM_P1;HPM_P2
2023/06/13 00:01:57;;;;;;;0.20;0.20;;;;;;;;;;5102731;27;20056;-78
2023/06/13 00:04:24;;;;;;;0.25;0.20;;;;;;;;;;5087914;28;20049;-77
2023/06/13 00:06:53;;;;;;;0.10;0.10;;;;;;;;;;5088380;28;20044;-78
2023/06/13 00:09:19;;;;;;;0.75;0.30;;;;;;;;;;5079839;28;20059;-77
2023/06/13 00:11:49;;;;;;;0.20;0.20;;;;;;;;;;5110022;28;20056;-77
2023/06/13 00:14:16;;;;;;;1.17;0.40;;;;;;;;;;5108995;28;20037;-77
2023/06/13 00:16:43;;;;;;;0.10;0.10;;;;;;;;;;5107567;28;20477;-77
2023/06/13 00:19:11;;;;;;;0.10;0.10;;;;;;;;;;5104417;28;20087;-77
2023/06/13 00:21:41;;;;;;;1.02;0.30;;;;;;;;;;5104198;28;20506;-77
2023/06/13 00:24:07;;;;;;;0.20;0.20;;;;;;;;;;5104460;28;20064;-77
2023/06/13 00:26:34;;;;;;;0.73;0.40;;;;;;;;;;5103759;28;20048;-77
2023/06/13 00:29:00;;;;;;;0.20;0.20;;;;;;;;;;5104410;28;20052;-78
2023/06/13 00:31:28;;;;;;;0.10;0.10;;;;;;;;;;5104191;28;20090;-78
2023/06/13 00:33:58;;;;;;;0.60;0.60;;;;;;;;;;5085617;28;20513;-78
2023/06/13 00:36:27;;;;;;;0.10;0.10;;;;;;;;;;5103976;28;20056;-78
2023/06/13 00:38:57;;;;;;;0.22;0.20;;;;;;;;;;5084035;28;20055;-78
2023/06/13 00:41:24;;;;;;;0.70;0.50;;;;;;;;;;5103833;28;20135;-77
2023/06/13 00:43:50;;;;;;;0.32;0.25;;;;;;;;;;5102551;28;20078;-78
2023/06/13 00:46:21;;;;;;;0.20;0.20;;;;;;;;;;5103594;28;20358;-77
2023/06/13 00:48:48;;;;;;;0.30;0.30;;;;;;;;;;5085939;28;20093;-77
2023/06/13 00:51:16;;;;;;;0.10;0.10;;;;;;;;;;5103898;28;20060;-76
2023/06/13 00:53:42;;;;;;;0.15;0.15;;;;;;;;;;5103592;28;20530;-77
2023/06/13 00:56:09;;;;;;;0.20;0.20;;;;;;;;;;5103289;28;20131;-76
2023/06/13 00:58:36;;;;;;;0.13;0.13;;;;;;;;;;5103474;28;20508;-76
2023/06/13 01:01:03;;;;;;;0.10;0.10;;;;;;;;;;5092097;28;20060;-76
2023/06/13 01:03:33;;;;;;;0.38;0.20;;;;;;;;;;5083225;28;20060;-76
2023/06/13 01:06:00;;;;;;;0.13;0.13;;;;;;;;;;5065162;28;20052;-76
2023/06/13 01:08:27;;;;;;;0.38;0.30;;;;;;;;;;5083162;28;20055;-77
2023/06/13 01:11:06;;;;;;;0.10;0.10;;;;;;;;;;5092090;28;20060;-77
2023/06/13 01:13:43;;;;;;;0.20;0.20;;;;;;;;;;5103713;27;20056;-77
2023/06/13 01:16:25;;;;;;;0.40;0.40;;;;;;;;;;5103879;28;20052;-77
2023/06/13 01:18:54;;;;;;;0.45;0.45;;;;;;;;;;5102934;28;20052;-76
2023/06/13 01:21:21;;;;;;;0.13;0.13;;;;;;;;;;5102300;28;20510;-77
2023/06/13 01:23:52;;;;;;;0.90;0.52;;;;;;;;;;5103003;28;20513;-77
2023/06/13 01:26:28;;;;;;;0.45;0.45;;;;;;;;;;5103491;27;20095;-77
2023/06/13 01:28:55;;;;;;;0.38;0.30;;;;;;;;;;5103034;28;20054;-77
2023/06/13 01:31:23;;;;;;;0.10;0.10;;;;;;;;;;5103167;27;20056;-77
2023/06/13 01:33:50;;;;;;;0.38;0.32;;;;;;;;;;5103515;27;20056;-78
2023/06/13 01:36:17;;;;;;;0.10;0.10;;;;;;;;;;5102707;28;20088;-77
2023/06/13 01:38:43;;;;;;;0.30;0.22;;;;;;;;;;5102249;28;20633;-78
2023/06/13 01:41:10;;;;;;;0.10;0.10;;;;;;;;;;5103096;28;20049;-77
2023/06/13 01:43:36;;;;;;;0.20;0.20;;;;;;;;;;5102980;28;20111;-78
2023/06/13 01:46:32;;;;;;;1.25;0.43;;;;;;;;;;5103077;28;20098;-78
2023/06/13 01:49:17;;;;;;;0.10;0.10;;;;;;;;;;5072263;28;20350;-78
2023/06/13 01:51:50;;;;;;;0.30;0.30;;;;;;;;;;5097671;28;20071;-78
2023/06/13 01:54:21;;;;;;;0.10;0.10;;;;;;;;;;5105845;28;20105;-77
2023/06/13 01:56:49;;;;;;;0.10;0.10;;;;;;;;;;5106088;27;20044;-78
2023/06/13 01:59:17;;;;;;;0.65;0.47;;;;;;;;;;5105924;28;20059;-77
2023/06/13 02:01:44;;;;;;;0.25;0.20;;;;;;;;;;5099748;28;20477;-78
2023/06/13 02:04:10;;;;;;;0.10;0.10;;;;;;;;;;5083752;28;20064;-78
2023/06/13 02:06:36;;;;;;;0.10;0.10;;;;;;;;;;5084326;28;20167;-78
2023/06/13 02:09:03;;;;;;;0.10;0.10;;;;;;;;;;5103596;28;20151;-77
2023/06/13 02:11:30;;;;;;;0.10;0.10;;;;;;;;;;5087731;28;20056;-78
2023/06/13 02:13:56;;;;;;;0.10;0.10;;;;;;;;;;5106142;28;20052;-78
2023/06/13 02:16:25;;;;;;;0.10;0.10;;;;;;;;;;5106568;27;20117;-77
2023/06/13 02:18:52;;;;;;;0.17;0.17;;;;;;;;;;5102284;28;20060;-78
2023/06/13 02:21:18;;;;;;;0.30;0.28;;;;;;;;;;5098583;27;20504;-78
2023/06/13 02:23:44;;;;;;;0.20;0.20;;;;;;;;;;5093800;28;20048;-78
2023/06/13 02:26:11;;;;;;;0.10;0.10;;;;;;;;;;5105175;27;20453;-78
2023/06/13 02:28:37;;;;;;;0.10;0.10;;;;;;;;;;5105758;28;20048;-78
2023/06/13 02:31:04;;;;;;;0.10;0.10;;;;;;;;;;5105215;28;20102;-78
2023/06/13 02:33:31;;;;;;;0.30;0.25;;;;;;;;;;5105809;28;20532;-78
2023/06/13 02:35:57;;;;;;;0.20;0.20;;;;;;;;;;5105642;28;20079;-77
2023/06/13 02:38:24;;;;;;;0.30;0.25;;;;;;;;;;5106387;28;20079;-78
2023/06/13 02:40:50;;;;;;;0.10;0.10;;;;;;;;;;5103788;28;20550;-78
2023/06/13 02:43:17;;;;;;;0.10;0.10;;;;;;;;;;5104355;28;20131;-78
2023/06/13 02:45:43;;;;;;;0.47;0.40;;;;;;;;;;5105810;27;20059;-78
2023/06/13 02:48:10;;;;;;;0.30;0.30;;;;;;;;;;5105382;27;20127;-77
2023/06/13 02:50:36;;;;;;;0.10;0.10;;;;;;;;;;5105598;28;20109;-78
2023/06/13 02:53:03;;;;;;;0.15;0.15;;;;;;;;;;5102773;28;20047;-77
2023/06/13 02:55:29;;;;;;;0.17;0.17;;;;;;;;;;5104965;28;20059;-78
2023/06/13 02:57:56;;;;;;;0.38;0.25;;;;;;;;;;5102205;28;20059;-78
2023/06/13 03:00:22;;;;;;;0.20;0.20;;;;;;;;;;5105498;28;20060;-77
2023/06/13 03:02:49;;;;;;;0.93;0.40;;;;;;;;;;5105397;27;20532;-77
2023/06/13 03:05:16;;;;;;;0.10;0.10;;;;;;;;;;5105312;28;20205;-77
2023/06/13 03:07:46;;;;;;;0.15;0.13;;;;;;;;;;5104552;28;20588;-77
2023/06/13 03:10:13;;;;;;;1.00;0.38;;;;;;;;;;5066468;28;20524;-78
2023/06/13 03:12:40;;;;;;;0.30;0.20;;;;;;;;;;5088048;28;20067;-78
2023/06/13 03:15:07;;;;;;;0.10;0.10;;;;;;;;;;5103276;28;20141;-77
2023/06/13 03:17:33;;;;;;;0.10;0.10;;;;;;;;;;5086301;28;20106;-77
2023/06/13 03:20:00;;;;;;;0.10;0.10;;;;;;;;;;5105173;28;20048;-77
2023/06/13 03:22:30;;;;;;;0.10;0.10;;;;;;;;;;5104581;28;20052;-77
2023/06/13 03:25:04;;;;;;;0.10;0.10;;;;;;;;;;5103965;28;20109;-78
2023/06/13 03:27:32;;;;;;;0.52;0.50;;;;;;;;;;5103780;28;20128;-77
2023/06/13 03:29:58;;;;;;;0.10;0.10;;;;;;;;;;5102230;28;20101;-77
2023/06/13 03:32:24;;;;;;;0.13;0.13;;;;;;;;;;5103645;28;20153;-77
2023/06/13 03:34:52;;;;;;;0.20;0.20;;;;;;;;;;5085987;28;20052;-77
2023/06/13 03:37:19;;;;;;;0.10;0.10;;;;;;;;;;5103214;27;20063;-77
2023/06/13 03:39:46;;;;;;;0.10;0.10;;;;;;;;;;5100468;28;20051;-77
2023/06/13 03:42:13;;;;;;;0.47;0.30;;;;;;;;;;5105056;28;20972;-77
2023/06/13 03:44:41;;;;;;;0.22;0.22;;;;;;;;;;5105088;28;20062;-78
2023/06/13 03:47:07;;;;;;;0.45;0.32;;;;;;;;;;5102623;28;20056;-77
2023/06/13 03:49:34;;;;;;;0.25;0.22;;;;;;;;;;5099980;28;20063;-77
2023/06/13 03:52:00;;;;;;;0.65;0.45;;;;;;;;;;5104913;28;20531;-78
2023/06/13 03:54:27;;;;;;;0.10;0.10;;;;;;;;;;5104587;28;20105;-77
2023/06/13 03:56:53;;;;;;;0.20;0.20;;;;;;;;;;5104392;28;20573;-77
2023/06/13 03:59:19;;;;;;;0.20;0.20;;;;;;;;;;5103383;28;20532;-76
2023/06/13 04:01:46;;;;;;;0.65;0.65;;;;;;;;;;5102850;28;20052;-78
2023/06/13 04:04:12;;;;;;;0.10;0.10;;;;;;;;;;5102786;28;20189;-78
2023/06/13 04:06:39;;;;;;;0.80;0.65;;;;;;;;;;5104703;27;20056;-77
2023/06/13 04:09:06;;;;;;;0.10;0.10;;;;;;;;;;5103625;28;20139;-77
2023/06/13 04:14:01;;;;;;;0.10;0.10;;;;;;;;;;5075402;27;20059;-78
2023/06/13 04:16:27;;;;;;;0.10;0.10;;;;;;;;;;5116129;27;20528;-78
2023/06/13 04:18:54;;;;;;;0.10;0.10;;;;;;;;;;5098142;28;20108;-77
2023/06/13 04:21:24;;;;;;;0.10;0.10;;;;;;;;;;5108907;27;20052;-77
2023/06/13 04:23:51;;;;;;;0.10;0.10;;;;;;;;;;5117976;28;20044;-77
2023/06/13 04:26:18;;;;;;;0.10;0.10;;;;;;;;;;5116623;28;20115;-78
2023/06/13 04:28:45;;;;;;;0.30;0.30;;;;;;;;;;5100619;28;20051;-78
2023/06/13 04:31:12;;;;;;;0.17;0.17;;;;;;;;;;5116935;28;20052;-77
2023/06/13 04:33:39;;;;;;;13.75;1.10;;;;;;;;;;5101290;28;20032;-78
2023/06/13 04:36:08;;;;;;;0.10;0.10;;;;;;;;;;5101530;28;20139;-78
2023/06/13 04:38:37;;;;;;;0.20;0.20;;;;;;;;;;5115918;28;20087;-77
2023/06/13 04:41:04;;;;;;;0.10;0.10;;;;;;;;;;5118066;28;20059;-77
2023/06/13 04:43:33;;;;;;;0.20;0.20;;;;;;;;;;5119097;28;20060;-78
2023/06/13 04:46:03;;;;;;;0.10;0.10;;;;;;;;;;5103140;28;20061;-77
2023/06/13 04:48:35;;;;;;;0.30;0.30;;;;;;;;;;5102920;28;20064;-78
2023/06/13 04:51:03;;;;;;;0.63;0.30;;;;;;;;;;5117217;28;20056;-76
2023/06/13 04:53:30;;;;;;;0.57;0.45;;;;;;;;;;5104374;28;20105;-76
2023/06/13 05:05:16;;;;;;;0.10;0.10;;;;;;;;;;5157965;22;20507;-79
2023/06/13 05:07:43;;;;;;;0.55;0.52;;;;;;;;;;5043246;28;20056;-79
2023/06/13 05:10:10;;;;;;;0.20;0.20;;;;;;;;;;5042902;28;20049;-77
2023/06/13 05:12:40;;;;;;;;;;;;;;;;;;5036253;28;20062;-76
2023/06/13 05:15:07;;;;;;;0.10;0.10;;;;;;;;;;5022028;28;46890;-77
2023/06/13 05:17:34;;;;;;;0.10;0.10;;;;;;;;;;5032581;28;20522;-77
2023/06/13 05:20:00;;;;;;;1.95;1.35;;;;;;;;;;5025271;28;20185;-77
2023/06/13 05:22:28;;;;;;;0.10;0.10;;;;;;;;;;5025398;28;20447;-76
2023/06/13 05:24:54;;;;;;;0.20;0.20;;;;;;;;;;5028069;28;20067;-77
2023/06/13 05:27:20;;;;;;;0.65;0.30;;;;;;;;;;5046956;28;20053;-76
2023/06/13 05:29:47;;;;;;;0.25;0.25;;;;;;;;;;5045387;28;20085;-78
2023/06/13 05:32:13;;;;;;;0.55;0.43;;;;;;;;;;5046998;28;20552;-77
2023/06/13 05:34:40;;;;;;;2.78;2.55;;;;;;;;;;5047390;28;20543;-77
2023/06/13 05:37:10;;;;;;;0.15;0.15;;;;;;;;;;5045368;28;20064;-77
2023/06/13 05:39:38;;;;;;;;;;;;;;;;;;5038906;28;20077;-76
2023/06/13 05:42:04;;;;;;;0.95;0.88;;;;;;;;;;5045964;28;48278;-77
2023/06/13 05:44:31;;;;;;;0.30;0.30;;;;;;;;;;5046887;28;20049;-78
2023/06/13 05:46:57;;;;;;;0.73;0.57;;;;;;;;;;5046881;28;20108;-77
2023/06/13 05:49:24;;;;;;;1.30;0.75;;;;;;;;;;5047072;28;20053;-77
2023/06/13 05:51:51;;;;;;;0.20;0.20;;;;;;;;;;5046890;28;20053;-76
2023/06/13 05:54:17;;;;;;;2.47;0.30;;;;;;;;;;5045697;28;20055;-76
2023/06/13 05:56:44;;;;;;;0.32;0.30;;;;;;;;;;5045393;28;20119;-76
2023/06/13 05:59:14;;;;;;;1.45;0.52;;;;;;;;;;5047070;28;20133;-76
2023/06/13 06:01:42;;;;;;;0.20;0.20;;;;;;;;;;5048150;28;20049;-76
2023/06/13 06:04:08;;;;;;;0.40;0.40;;;;;;;;;;5047448;28;20057;-79
2023/06/13 06:06:35;;;;;;;0.17;0.17;;;;;;;;;;5047801;28;20152;-76
2023/06/13 06:09:02;;;;;;;0.10;0.10;;;;;;;;;;5041313;28;20733;-76
2023/06/13 06:11:29;;;;;;;0.25;0.20;;;;;;;;;;5047824;28;20073;-76
2023/06/13 06:13:56;;;;;;;0.90;0.43;;;;;;;;;;5038651;28;20053;-76
2023/06/13 06:16:22;;;;;;;0.15;0.15;;;;;;;;;;5046054;28;20049;-76
2023/06/13 06:18:50;;;;;;;0.25;0.25;;;;;;;;;;5046975;28;20167;-76
2023/06/13 06:21:16;;;;;;;1.58;0.60;;;;;;;;;;5028881;28;20147;-76
2023/06/13 06:23:43;;;;;;;0.20;0.20;;;;;;;;;;5043307;28;20354;-76
2023/06/13 06:26:10;;;;;;;0.85;0.43;;;;;;;;;;5048866;28;20477;-77
2023/06/13 06:28:37;;;;;;;0.63;0.45;;;;;;;;;;5033293;28;20175;-77
2023/06/13 06:31:05;;;;;;;0.10;0.10;;;;;;;;;;5045670;28;20095;-76
2023/06/13 06:33:31;;;;;;;1.00;0.68;;;;;;;;;;5044117;28;20329;-75
2023/06/13 06:35:58;;;;;;;0.47;0.28;;;;;;;;;;5043465;28;20057;-75
2023/06/13 06:38:24;;;;;;;0.80;0.63;;;;;;;;;;5041145;28;20057;-75
2023/06/13 06:40:51;;;;;;;0.52;0.40;;;;;;;;;;5025423;28;20370;-76
2023/06/13 06:43:17;;;;;;;1.42;1.08;;;;;;;;;;5047818;28;20573;-76
2023/06/13 06:45:43;;;;;;;3.67;0.60;;;;;;;;;;5042596;28;20623;-76
2023/06/13 06:48:10;;;;;;;6.10;3.15;;;;;;;;;;5044952;28;20053;-76
2023/06/13 06:50:36;;;;;;;0.77;0.63;;;;;;;;;;5045801;28;20053;-76
2023/06/13 06:53:03;;;;;;;1.63;1.35;;;;;;;;;;5042122;28;20060;-75
2023/06/13 06:55:29;;;;;;;0.20;0.20;;;;;;;;;;5026713;28;20081;-75
2023/06/13 06:57:56;;;;;;;0.20;0.20;;;;;;;;;;5044339;28;20112;-75
2023/06/13 07:00:23;;;;;;;0.30;0.30;;;;;;;;;;5045492;28;20577;-76
2023/06/13 07:02:49;;;;;;;0.32;0.30;;;;;;;;;;5043114;28;20089;-76
2023/06/13 07:05:16;;;;;;;0.20;0.20;;;;;;;;;;5044740;28;20507;-76
2023/06/13 07:07:44;;;;;;;0.90;0.50;;;;;;;;;;5045495;28;20057;-76
2023/06/13 07:10:10;;;;;;;0.70;0.45;;;;;;;;;;5040836;28;20050;-76
2023/06/13 07:12:38;;;;;;;1.08;0.38;;;;;;;;;;5043839;28;20057;-76
2023/06/13 07:15:05;;;;;;;0.30;0.30;;;;;;;;;;5045173;28;20625;-76
2023/06/13 07:17:31;;;;;;;0.70;0.70;;;;;;;;;;5043513;28;20053;-76
2023/06/13 07:19:57;;;;;;;0.20;0.20;;;;;;;;;;5043162;28;20439;-76
2023/06/13 07:22:25;;;;;;;0.77;0.50;;;;;;;;;;5026760;28;20046;-76
2023/06/13 07:24:51;;;;;;;1.17;0.82;;;;;;;;;;5053324;28;20068;-76
2023/06/13 07:27:18;;;;;;;0.40;0.40;;;;;;;;;;5064854;28;20055;-75
2023/06/13 07:29:44;;;;;;;1.02;0.52;;;;;;;;;;5042489;28;20561;-76
2023/06/13 07:32:11;;;;;;;1.67;0.50;;;;;;;;;;5045054;28;20137;-75
2023/06/13 07:34:37;;;;;;;0.55;0.43;;;;;;;;;;5044239;28;20119;-75
2023/06/13 07:37:06;;;;;;;1.02;0.73;;;;;;;;;;5043884;28;20156;-74
2023/06/13 07:39:33;;;;;;;0.80;0.47;;;;;;;;;;5040984;28;20060;-75
2023/06/13 07:41:59;;;;;;;0.85;0.63;;;;;;;;;;5035246;28;20541;-74
2023/06/13 07:44:25;;;;;;;0.52;0.52;;;;;;;;;;5045073;28;20148;-75
2023/06/13 07:46:52;;;;;;;0.50;0.40;;;;;;;;;;5044364;28;20050;-74
2023/06/13 07:49:18;;;;;;;1.58;1.15;;;;;;;;;;5042187;28;20053;-75
2023/06/13 07:51:45;;;;;;;0.80;0.57;;;;;;;;;;5043870;28;20058;-75
2023/06/13 07:54:11;;;;;;;0.40;0.30;;;;;;;;;;5030796;28;20559;-74
2023/06/13 07:56:38;;;;;;;0.70;0.30;;;;;;;;;;5035600;28;20061;-74
2023/06/13 07:59:06;;;;;;;0.30;0.30;;;;;;;;;;5054095;28;20523;-73
2023/06/13 08:01:32;;;;;;;0.47;0.30;;;;;;;;;;5043043;28;20117;-74
2023/06/13 08:03:59;;;;;;;0.65;0.43;;;;;;;;;;5039906;28;20128;-73
2023/06/13 08:06:25;;;;;;;0.30;0.30;;;;;;;;;;5039212;28;20583;-73
2023/06/13 08:08:52;;;;;;;0.55;0.40;;;;;;;;;;5044597;28;20107;-74
2023/06/13 08:11:18;;;;;;;1.08;0.43;;;;;;;;;;5038734;28;20116;-74
2023/06/13 08:13:44;;;;;;;0.75;0.50;;;;;;;;;;5041529;28;20054;-75
2023/06/13 08:16:11;;;;;;;0.30;0.30;;;;;;;;;;5056008;28;20057;-74
2023/06/13 08:18:38;;;;;;;0.43;0.40;;;;;;;;;;5042106;28;20063;-74
2023/06/13 08:21:05;;;;;;;0.50;0.40;;;;;;;;;;5042628;28;20069;-75
2023/06/13 08:23:32;;;;;;;0.40;0.40;;;;;;;;;;5041948;28;20107;-75
2023/06/13 08:25:58;;;;;;;0.20;0.20;;;;;;;;;;5036115;28;21354;-75
2023/06/13 08:28:25;;;;;;;0.60;0.43;;;;;;;;;;5037374;28;20060;-74
2023/06/13 08:30:52;;;;;;;0.70;0.40;;;;;;;;;;5042756;28;21407;-74
2023/06/13 08:33:34;;;;;;;0.77;0.50;;;;;;;;;;5036648;28;20054;-74
2023/06/13 08:36:01;;;;;;;0.30;0.30;;;;;;;;;;5040573;28;20061;-75
2023/06/13 08:38:28;;;;;;;0.63;0.57;;;;;;;;;;5038808;28;20101;-74
2023/06/13 08:41:15;;;;;;;0.38;0.38;;;;;;;;;;5038642;28;20056;-74
2023/06/13 08:43:41;;;;;;;0.73;0.47;;;;;;;;;;5043816;28;20058;-75
2023/06/13 08:46:07;;;;;;;0.68;0.40;;;;;;;;;;5041669;28;20499;-75
2023/06/13 08:48:35;;;;;;;1.67;1.13;;;;;;;;;;5041269;28;20160;-74
2023/06/13 08:51:03;;;;;;;1.10;0.60;;;;;;;;;;5040351;28;20054;-74
2023/06/13 08:53:31;;;;;;;0.43;0.40;;;;;;;;;;5030052;28;20354;-74
2023/06/13 08:56:00;;;;;;;1.25;0.90;;;;;;;;;;5043123;28;20342;-74
2023/06/13 08:58:33;;;;;;;0.43;0.32;;;;;;;;;;5040785;28;20053;-75
2023/06/13 09:01:00;;;;;;;1.05;0.60;;;;;;;;;;5037882;28;20536;-74
2023/06/13 09:03:28;;;;;;;2.78;0.98;;;;;;;;;;5041303;28;20416;-76
2023/06/13 09:05:56;;;;;;;0.90;0.57;;;;;;;;;;5043109;28;20053;-75
2023/06/13 09:08:23;;;;;;;0.52;0.30;;;;;;;;;;5041687;28;20204;-76
2023/06/13 09:10:59;;;;;;;0.30;0.30;;;;;;;;;;5038451;28;20050;-76
2023/06/13 09:13:27;;;;;;;0.85;0.50;;;;;;;;;;5023552;28;20061;-76
2023/06/13 09:15:54;;;;;;;0.45;0.45;;;;;;;;;;5042413;28;20128;-76
2023/06/13 09:18:21;;;;;;;0.50;0.40;;;;;;;;;;5034848;28;20192;-76
2023/06/13 09:20:48;;;;;;;0.45;0.40;;;;;;;;;;5039435;28;20050;-75
2023/06/13 09:23:17;;;;;;;0.40;0.30;;;;;;;;;;5042855;28;20049;-76
2023/06/13 09:25:44;;;;;;;;;;;;;;;;;;5040130;28;20246;-76
2023/06/13 09:28:29;;;;;;;0.57;0.40;;;;;;;;;;5041753;28;45783;-75
2023/06/13 09:30:56;;;;;;;0.40;0.40;;;;;;;;;;5027687;28;20053;-75
2023/06/13 09:33:23;;;;;;;0.65;0.43;;;;;;;;;;5035083;28;20057;-75
2023/06/13 09:35:53;;;;;;;0.60;0.60;;;;;;;;;;5032183;28;20100;-75
2023/06/13 09:38:23;;;;;;;0.85;0.60;;;;;;;;;;5038547;28;20606;-75
2023/06/13 09:40:54;;;;;;;1.70;0.77;;;;;;;;;;5052959;28;20269;-75
2023/06/13 09:43:23;;;;;;;1.05;0.75;;;;;;;;;;5053422;28;20057;-75
2023/06/13 09:48:25;;;;;;;1.20;0.80;;;;;;;;;;5070011;28;20064;-73
2023/06/13 09:50:51;;;;;;;1.20;1.02;;;;;;;;;;5080225;28;20052;-73
2023/06/13 09:53:18;;;;;;;2.13;1.10;;;;;;;;;;5076680;28;20060;-73
2023/06/13 09:55:44;;;;;;;0.75;0.65;;;;;;;;;;5075205;28;20138;-74
2023/06/13 09:58:11;;;;;;;1.05;0.95;;;;;;;;;;5082492;28;20056;-74
2023/06/13 10:00:58;;;;;;;0.45;0.40;;;;;;;;;;5082679;28;20140;-72
2023/06/13 10:03:27;;;;;;;0.50;0.50;;;;;;;;;;5082407;28;20106;-73
2023/06/13 10:05:53;;;;;;;0.55;0.38;;;;;;;;;;5079077;28;20057;-73
2023/06/13 10:08:20;;;;;;;0.93;0.73;;;;;;;;;;5087458;28;20052;-74
2023/06/13 10:10:46;;;;;;;0.38;0.30;;;;;;;;;;5087419;28;20521;-74
2023/06/13 10:13:15;;;;;;;1.50;0.65;;;;;;;;;;5095733;28;20052;-74
2023/06/13 10:15:48;;;;;;;0.80;0.60;;;;;;;;;;5085400;28;20576;-74
2023/06/13 10:18:17;;;;;;;0.65;0.60;;;;;;;;;;5067680;28;20056;-73
2023/06/13 10:20:46;;;;;;;0.98;0.77;;;;;;;;;;5087974;28;20182;-74
2023/06/13 10:23:14;;;;;;;1.23;0.85;;;;;;;;;;5086117;28;20499;-74
2023/06/13 10:25:42;;;;;;;1.00;0.50;;;;;;;;;;5078687;28;20161;-74
2023/06/13 10:28:35;;;;;;;1.83;0.95;;;;;;;;;;5084784;28;20056;-75
2023/06/13 10:31:26;;;;;;;0.65;0.60;;;;;;;;;;5075455;28;20052;-77
2023/06/13 10:33:52;;;;;;;0.77;0.57;;;;;;;;;;5079971;28;20058;-74
2023/06/13 10:36:24;;;;;;;0.43;0.43;;;;;;;;;;5085352;28;20167;-74
2023/06/13 10:38:57;;;;;;;0.40;0.40;;;;;;;;;;5085752;28;22320;-74
2023/06/13 10:41:37;;;;;;;1.42;0.95;;;;;;;;;;5091085;28;20052;-74
2023/06/13 10:44:07;;;;;;;1.42;0.88;;;;;;;;;;5101204;28;20461;-74
2023/06/13 10:46:34;;;;;;;0.30;0.30;;;;;;;;;;5106761;27;20052;-74
2023/06/13 10:49:01;;;;;;;1.48;1.20;;;;;;;;;;5096610;28;20048;-74
2023/06/13 10:51:29;;;;;;;1.30;0.93;;;;;;;;;;5085147;28;20064;-74
2023/06/13 10:53:56;;;;;;;0.65;0.60;;;;;;;;;;5081022;28;20141;-74
2023/06/13 10:56:28;;;;;;;1.27;1.05;;;;;;;;;;5084092;28;20084;-74
2023/06/13 10:59:05;;;;;;;0.40;0.40;;;;;;;;;;5086403;28;20059;-75
2023/06/13 11:01:32;;;;;;;1.05;0.60;;;;;;;;;;5091760;28;20548;-74
2023/06/13 11:04:05;;;;;;;0.50;0.50;;;;;;;;;;5090379;28;20059;-74
2023/06/13 11:06:32;;;;;;;0.98;0.60;;;;;;;;;;5096505;28;20052;-75
2023/06/13 11:09:17;;;;;;;0.57;0.57;;;;;;;;;;5083888;28;20395;-75
2023/06/13 11:12:00;;;;;;;1.08;0.60;;;;;;;;;;5084724;28;20453;-75
2023/06/13 11:14:27;;;;;;;1.85;0.50;;;;;;;;;;5095284;28;20074;-75
2023/06/13 11:16:54;;;;;;;0.90;0.50;;;;;;;;;;5096800;28;20056;-75
2023/06/13 11:19:21;;;;;;;0.80;0.57;;;;;;;;;;5096766;28;20091;-76
2023/06/13 11:22:06;;;;;;;1.02;0.70;;;;;;;;;;5101449;28;20106;-74
2023/06/13 11:24:36;;;;;;;0.50;0.50;;;;;;;;;;5075496;28;20048;-74
2023/06/13 11:27:13;;;;;;;0.75;0.68;;;;;;;;;;5085972;28;20088;-74
2023/06/13 11:29:40;;;;;;;1.05;0.73;;;;;;;;;;5085508;28;20079;-74
2023/06/13 11:32:08;;;;;;;3.05;1.13;;;;;;;;;;5084314;28;20104;-74
2023/06/13 11:34:38;;;;;;;0.77;0.50;;;;;;;;;;5082946;28;20052;-73
2023/06/13 11:37:12;;;;;;;1.05;0.57;;;;;;;;;;5080961;28;20048;-75
2023/06/13 11:39:41;;;;;;;0.40;0.40;;;;;;;;;;5085374;28;20059;-75
2023/06/13 11:42:08;;;;;;;0.88;0.73;;;;;;;;;;5081359;28;20395;-75
2023/06/13 11:44:35;;;;;;;1.25;0.73;;;;;;;;;;5082751;28;20048;-75
2023/06/13 11:47:01;;;;;;;1.08;0.75;;;;;;;;;;5083819;28;20171;-75
2023/06/13 11:49:28;;;;;;;0.70;0.57;;;;;;;;;;5083660;28;20057;-74
2023/06/13 11:51:54;;;;;;;0.95;0.65;;;;;;;;;;5084491;28;20063;-74
2023/06/13 11:54:30;;;;;;;0.55;0.50;;;;;;;;;;5085563;28;20135;-74
2023/06/13 11:56:56;;;;;;;1.23;0.80;;;;;;;;;;5074383;28;20083;-74
2023/06/13 11:59:23;;;;;;;0.63;0.52;;;;;;;;;;5076460;28;20052;-74
2023/06/13 12:01:52;;;;;;;0.70;0.60;;;;;;;;;;5072270;28;20693;-75
2023/06/13 12:04:19;;;;;;;1.25;0.82;;;;;;;;;;5078556;28;20053;-75
2023/06/13 12:06:46;;;;;;;1.20;0.50;;;;;;;;;;5070578;28;20057;-75
2023/06/13 12:09:14;;;;;;;0.73;0.57;;;;;;;;;;5075913;28;20056;-75
2023/06/13 12:11:41;;;;;;;0.88;0.65;;;;;;;;;;5077926;28;20138;-74
2023/06/13 12:14:07;;;;;;;1.67;0.50;;;;;;;;;;5076630;28;20103;-74
2023/06/13 12:16:35;;;;;;;3.03;0.80;;;;;;;;;;5075802;28;21023;-75
2023/06/13 12:19:06;;;;;;;1.10;0.80;;;;;;;;;;5076991;28;20059;-74
2023/06/13 12:21:36;;;;;;;1.33;0.90;;;;;;;;;;5079108;28;20576;-73
2023/06/13 12:24:04;;;;;;;1.38;0.60;;;;;;;;;;5071698;28;20053;-76
2023/06/13 12:26:33;;;;;;;1.08;0.80;;;;;;;;;;5071614;28;20682;-74
2023/06/13 12:29:06;;;;;;;0.80;0.60;;;;;;;;;;5077781;28;20064;-75
2023/06/13 12:31:36;;;;;;;0.90;0.50;;;;;;;;;;5078750;28;20052;-74
2023/06/13 12:34:06;;;;;;;1.83;1.00;;;;;;;;;;5074668;28;20052;-74
2023/06/13 12:36:42;;;;;;;1.30;0.70;;;;;;;;;;5071649;28;20523;-73
2023/06/13 12:39:09;;;;;;;0.43;0.40;;;;;;;;;;5079302;28;20052;-74
2023/06/13 12:41:37;;;;;;;1.23;0.80;;;;;;;;;;5071460;28;20586;-73
2023/06/13 12:44:06;;;;;;;0.50;0.50;;;;;;;;;;5074834;28;20056;-74
2023/06/13 12:46:38;;;;;;;1.40;0.77;;;;;;;;;;5074691;28;20090;-73
2023/06/13 12:49:09;;;;;;;0.60;0.50;;;;;;;;;;5079113;28;20057;-74
2023/06/13 12:51:41;;;;;;;2.15;1.17;;;;;;;;;;5068828;28;20056;-74
2023/06/13 12:54:08;;;;;;;1.02;0.70;;;;;;;;;;5074080;28;20139;-75
2023/06/13 12:56:35;;;;;;;9.20;0.70;;;;;;;;;;5075758;28;20542;-74
2023/06/13 12:59:01;;;;;;;1.23;0.68;;;;;;;;;;5077009;28;20053;-75
2023/06/13 13:01:28;;;;;;;0.52;0.40;;;;;;;;;;5063683;28;20506;-74
2023/06/13 13:03:54;;;;;;;1.10;0.70;;;;;;;;;;5075964;28;20055;-76
2023/06/13 13:06:23;;;;;;;0.85;0.60;;;;;;;;;;5075678;28;20155;-75
2023/06/13 13:08:50;;;;;;;1.02;0.70;;;;;;;;;;5071452;28;20088;-75
2023/06/13 13:11:16;;;;;;;1.00;0.65;;;;;;;;;;5074449;28;20136;-75
2023/06/13 13:13:45;;;;;;;4.82;0.80;;;;;;;;;;5070358;28;20063;-75
2023/06/13 13:16:12;;;;;;;0.90;0.75;;;;;;;;;;5074314;28;21655;-75
2023/06/13 13:18:39;;;;;;;1.15;0.65;;;;;;;;;;5072186;28;20144;-75
2023/06/13 13:21:05;;;;;;;0.40;0.40;;;;;;;;;;5074629;28;20508;-74
2023/06/13 13:23:32;;;;;;;0.88;0.60;;;;;;;;;;5074991;28;20053;-75
2023/06/13 13:25:59;;;;;;;0.90;0.73;;;;;;;;;;5077187;28;20056;-75
2023/06/13 13:28:25;;;;;;;1.33;0.60;;;;;;;;;;5075660;28;20061;-77
2023/06/13 13:30:52;;;;;;;1.33;0.70;;;;;;;;;;5076047;28;20550;-75
2023/06/13 13:33:28;;;;;;;1.33;0.88;;;;;;;;;;5077721;28;20516;-75
2023/06/13 13:35:54;;;;;;;0.75;0.57;;;;;;;;;;5083432;28;20580;-75
2023/06/13 13:38:20;;;;;;;0.73;0.52;;;;;;;;;;5083198;28;20130;-75
2023/06/13 13:40:48;;;;;;;1.38;0.65;;;;;;;;;;5076719;28;20140;-76
2023/06/13 13:43:15;;;;;;;0.40;0.40;;;;;;;;;;5080136;28;20072;-75
2023/06/13 13:45:41;;;;;;;0.98;0.70;;;;;;;;;;5086264;28;20180;-76
2023/06/13 13:48:10;;;;;;;1.15;0.70;;;;;;;;;;5084910;28;20072;-75
2023/06/13 13:50:37;;;;;;;;;;;;;;;;;;5082343;28;20044;-75
2023/06/13 13:53:03;;;;;;;1.13;0.60;;;;;;;;;;5082780;28;44748;-76
2023/06/13 13:55:31;;;;;;;0.40;0.40;;;;;;;;;;5086686;28;20163;-76
2023/06/13 13:57:57;;;;;;;1.48;0.65;;;;;;;;;;5085847;28;19924;-75
2023/06/13 14:00:23;;;;;;;1.10;0.63;;;;;;;;;;5085384;28;20140;-74
2023/06/13 14:02:50;;;;;;;0.75;0.60;;;;;;;;;;5086781;28;20792;-75
2023/06/13 14:05:17;;;;;;;0.65;0.50;;;;;;;;;;5067790;28;20052;-75
2023/06/13 14:07:44;;;;;;;0.93;0.60;;;;;;;;;;5090558;28;20119;-75
2023/06/13 14:10:10;;;;;;;1.52;0.90;;;;;;;;;;5089511;28;20134;-75
2023/06/13 14:12:37;;;;;;;1.50;1.05;;;;;;;;;;5087546;28;20143;-74
2023/06/13 14:15:03;;;;;;;0.98;0.70;;;;;;;;;;5085499;28;20056;-74
2023/06/13 14:17:29;;;;;;;1.38;0.75;;;;;;;;;;5085677;28;20048;-75
2023/06/13 14:19:56;;;;;;;0.60;0.60;;;;;;;;;;5086650;28;20660;-75
2023/06/13 14:22:23;;;;;;;0.68;0.50;;;;;;;;;;5088743;28;20535;-75
2023/06/13 14:24:50;;;;;;;0.85;0.68;;;;;;;;;;5086305;28;20080;-74
2023/06/13 14:27:16;;;;;;;1.80;0.70;;;;;;;;;;5096341;28;20047;-75
2023/06/13 14:29:42;;;;;;;1.77;1.25;;;;;;;;;;5098545;28;20167;-75
2023/06/13 14:32:09;;;;;;;0.75;0.60;;;;;;;;;;5083627;28;20059;-75
2023/06/13 14:34:35;;;;;;;3.30;0.85;;;;;;;;;;5092133;28;20063;-75
2023/06/13 14:37:02;;;;;;;0.73;0.50;;;;;;;;;;5084747;28;20546;-75
2023/06/13 14:39:29;;;;;;;0.85;0.55;;;;;;;;;;5085830;28;20134;-75
2023/06/13 14:41:58;;;;;;;1.10;0.50;;;;;;;;;;5085630;28;20061;-75
2023/06/13 14:44:24;;;;;;;1.42;0.88;;;;;;;;;;5084188;28;20140;-76
2023/06/13 14:46:50;;;;;;;1.33;0.60;;;;;;;;;;5088364;28;20059;-75
2023/06/13 14:49:17;;;;;;;0.98;0.60;;;;;;;;;;5086221;28;20052;-75
2023/06/13 14:51:43;;;;;;;1.00;0.63;;;;;;;;;;5067718;28;20055;-77
2023/06/13 14:54:11;;;;;;;2.08;0.82;;;;;;;;;;5067569;28;20135;-75
2023/06/13 14:56:37;;;;;;;0.95;0.70;;;;;;;;;;5065670;28;20131;-75
2023/06/13 14:59:04;;;;;;;0.80;0.70;;;;;;;;;;5085056;28;20083;-74
2023/06/13 15:01:32;;;;;;;0.50;0.43;;;;;;;;;;5081313;28;20531;-75
2023/06/13 15:04:00;;;;;;;1.25;0.75;;;;;;;;;;5079780;28;20566;-75